• Join FlightAware (Why Join?)
  • Login
  • US Flag 
10:16AM EDT


 

Airport Tracker/Info


-or-


 

Live Flight TrackerFlight Track Log ✈ N210PM ✈ 26-Jul-2013 ✈ KSTJ - KALO

Flight Track Log - Related Links

Times and Time Zones

All times are in EDT time to prevent confusion due to time zone crossing. See the N210PM flight status page for this flight to view local times or setup timezone preferences in your user account.

Time Position Orientation Groundspeed Altitude Reporting Facility
EDT Latitude Longitude Course Direction KTS MPH feet Rate Location/Type
05:33PM 39.7833 -94.9000 347° North 151 174 1,900  Level Kansas City TRACON
05:33PM 39.7969 -94.9042 347° North 145 167 2,300 1,980 Climbing Minneapolis Center
05:34PM 39.8275 -94.8761 35° Northeast 166 191 4,200 2,940 Climbing Kansas City Center
05:35PM 39.8747 -94.8342 34° Northeast 184 212 7,300 2,460 Climbing Kansas City Center
05:36PM 39.9139 -94.8008 33° Northeast 177 204 9,400 2,160 Climbing Kansas City Center
05:37PM 39.9656 -94.7561 34° Northeast 197 227 11,800 2,100 Climbing Kansas City Center
05:38PM 40.0108 -94.7158 34° Northeast 204 235 13,800 1,920 Climbing Kansas City Center
05:39PM 40.0658 -94.6692 33° Northeast 211 243 15,800 1,680 Climbing Kansas City Center
05:40PM 40.1217 -94.6183 35° Northeast 216 249 17,700 1,560 Climbing Kansas City Center
05:41PM 40.1842 -94.5675 32° Northeast 236 272 19,400 1,500 Climbing Kansas City Center
05:42PM 40.2378 -94.5183 35° Northeast 243 280 20,900 720 Climbing Kansas City Center
05:43PM 40.3106 -94.4558 33° Northeast 268 308 21,000  Climbing Kansas City Center
05:44PM 40.3839 -94.3881 35° Northeast 312 359 21,000  Level Kansas City Center
05:45PM 40.4611 -94.3225 33° Northeast 327 376 21,000  Level Minneapolis Center
05:47PM 40.5389 -94.2533 34° Northeast 335 386 21,000  Level Minneapolis Center
05:48PM 40.6181 -94.1833 34° Northeast 341 392 21,000  Level Minneapolis Center
05:49PM 40.7122 -94.1000 34° Northeast 342 394 21,000  Level Minneapolis Center
05:50PM 40.7908 -94.0314 33° Northeast 341 392 21,000  Level Minneapolis Center
05:51PM 40.8675 -93.9611 35° Northeast 339 390 21,000  Level Minneapolis Center
05:52PM 40.9458 -93.8917 34° Northeast 340 391 21,000  Level Minneapolis Center
05:53PM 41.0228 -93.8233 34° Northeast 337 388 21,000  Level Minneapolis Center
05:54PM 41.1147 -93.7400 34° Northeast 335 386 21,000  Level Minneapolis Center
05:55PM 41.1925 -93.6706 34° Northeast 337 388 21,000  Level Minneapolis Center
05:57PM 41.3461 -93.5297 35° Northeast 335 386 21,000  Level Chicago Center
05:58PM 41.4386 -93.4453 34° Northeast 337 388 21,000  Level Chicago Center
05:59PM 41.5153 -93.3742 35° Northeast 337 388 21,000  Level Chicago Center
06:00PM 41.5919 -93.3053 34° Northeast 334 384 21,000 -180 Level Chicago Center
06:01PM 41.6839 -93.2211 34° Northeast 336 387 20,600 -780 Descending Minneapolis Center
06:02PM 41.7603 -93.1494 35° Northeast 337 388 19,300 -1,440 Descending Minneapolis Center
06:03PM 41.8325 -93.0822 35° Northeast 326 375 17,700 -1,740 Descending Minneapolis Center
06:04PM 41.9172 -93.0033 35° Northeast 315 362 15,800 -1,800 Descending Minneapolis Center
06:05PM 41.9878 -92.9383 34° Northeast 309 356 14,100 -1,560 Descending Minneapolis Center
06:06PM 42.0539 -92.8772 34° Northeast 297 342 12,600 -1,440 Descending Minneapolis Center
06:07PM 42.1036 -92.8258 37° Northeast 287 330 11,400 -1,620 Descending Chicago Center
06:08PM 42.1778 -92.7572 34° Northeast 274 315 9,600 -1,560 Descending Chicago Center
06:09PM 42.2392 -92.6989 35° Northeast 271 312 8,200 -1,440 Descending Chicago Center
06:10PM 42.2989 -92.6406 36° Northeast 269 310 6,700 -1,380 Descending Chicago Center
06:11PM 42.3581 -92.5856 34° Northeast 266 306 5,400 -1,260 Descending Chicago Center
06:12PM 42.4092 -92.5353 36° Northeast 248 285 4,200 -1,260 Descending Chicago Center
06:13PM 42.4486 -92.4456 59° Northeast 238 274 2,900 -840 Descending Chicago Center
06:15PM 42.4756 -92.3914 56° Northeast 202 232 2,500 -420 Descending Chicago Center
06:16PM 42.5003 -92.3528 49° Northeast 159 183 2,100 -540 Descending Chicago Center
06:17PM 42.5289 -92.3533 359° North 123 142 1,500 -480 Descending Chicago Center
06:18PM 42.5503 -92.3786 319° Northwest 109 125 1,200 -300 Descending Chicago Center
06:20PM 42.5500 -92.4000 20° North  Level FlightAware Approximate